Flight Track Log - Related Links

Times and Time Zones

All times are in EDT time to prevent confusion due to time zone crossing. See the VH-LXA flight status page for this flight to view local times or setup timezone preferences in your user account.

Time Position Orientation Groundspeed Altitude Reporting Facility
EDT Latitude Longitude Course Direction KTS MPH feet Rate Location/Type
Fri 03:49:41 AM -32.1089 115.8574 340° North 71 82 800  Level Aus ATC (RADAR)
Fri 03:50:21 AM -32.0930 115.8505 340° North 88 101 1,200 635 Climbing Aus ATC (RADAR)
Fri 03:51:06 AM -32.0751 115.8443 344° North 90 104 1,700 600 Climbing Aus ATC (RADAR)
Fri 03:51:31 AM -32.0678 115.8365 318° Northwest 87 100 1,900 400 Climbing Aus ATC (RADAR)
Fri 03:52:06 AM -32.0610 115.8204 296° West 93 107 2,100 421 Climbing Aus ATC (RADAR)
Fri 03:53:25 AM -32.0819 115.8069 209° Southwest 103 119 2,700 383 Climbing Aus ATC (RADAR)
Fri 03:53:40 AM -32.0878 115.8124 142° Southeast 106 122 2,700 480 Level Aus ATC (RADAR)
Fri 03:54:15 AM -32.0991 115.8262 134° Southeast 98 113 3,100 349 Climbing Aus ATC (RADAR)
Fri 03:55:06 AM -32.1129 115.8531 121° Southeast 116 133 3,200  Climbing Aus ATC (RADAR)
Fri 03:55:40 AM -32.1302 115.8654 149° Southeast 124 143 3,100 -71 Descending Aus ATC (RADAR)
Fri 03:56:30 AM -32.1547 115.8723 167° South 107 123 3,100 80 Level Aus ATC (RADAR)
Fri 03:56:55 AM -32.1663 115.8743 172° South 103 119 3,200  Climbing Aus ATC (RADAR)
Fri 03:57:50 AM -32.1914 115.8856 159° South 104 120 3,100  Descending Aus ATC (RADAR)
Fri 03:58:20 AM -32.2052 115.8930 156° South 109 125 3,200 133 Climbing Aus ATC (RADAR)
Fri 03:58:35 AM -32.2124 115.8967 157° South 111 128 3,200  Level Aus ATC (RADAR)
Fri 03:59:15 AM -32.2330 115.9076 156° South 118 136 3,200 -71 Level Aus ATC (RADAR)
Fri 04:00:00 AM -32.2563 115.9200 156° South 123 142 3,100 -76 Descending Aus ATC (RADAR)
Fri 04:00:34 AM -32.2738 115.9293 156° South 122 140 3,100  Level Aus ATC (RADAR)
Fri 04:01:25 AM -32.2981 115.9412 158° South 115 132 3,100 86 Level Aus ATC (RADAR)
Fri 04:01:44 AM -32.3079 115.9470 153° Southeast 116 133 3,200 111 Climbing Aus ATC (RADAR)
Fri 04:02:19 AM -32.3252 115.9578 152° Southeast 119 137 3,200  Level Aus ATC (RADAR)
Fri 04:03:15 AM -32.3516 115.9735 153° Southeast 115 132 3,200  Level Aus ATC (RADAR)
Fri 04:03:44 AM -32.3655 115.9823 152° Southeast 113 130 3,200 -94 Level Aus ATC (RADAR)
Fri 04:04:19 AM -32.3827 115.9899 160° South 112 129 3,100  Descending Aus ATC (RADAR)
Fri 04:04:54 AM -32.3973 115.9795 211° Southwest 106 122 3,200 -171 Climbing Aus ATC (RADAR)
Fri 04:05:29 AM -32.4098 115.9640 226° Southwest 110 127 2,900 -565 Descending Aus ATC (RADAR)
Fri 04:06:19 AM -32.4262 115.9394 232° Southwest 111 128 2,400 -640 Descending Aus ATC (RADAR)
Fri 04:06:44 AM -32.4347 115.9286 227° Southwest 108 124 2,100 -738 Descending Aus ATC (RADAR)
Fri 04:07:24 AM -32.4473 115.9112 229° Southwest 103 119 1,600 -540 Descending Aus ATC (RADAR)
Fri 04:08:24 AM -32.4636 115.8861 232° Southwest 89 102 1,200 -375 Descending Aus ATC (RADAR)
Fri 04:08:44 AM -32.4699 115.8796 221° Southwest 89 102 1,100 -436 Descending Aus ATC (RADAR)
Fri 04:09:19 AM -32.4802 115.8686 222° Southwest 87 100 800 -282 Descending Aus ATC (RADAR)
Fri 04:10:09 AM -32.4925 115.8513 230° Southwest 79 91 700  Descending Aus ATC (RADAR)
Fri 04:10:44 AM -32.5022 115.8421 219° Southwest 77 89 800 304 Climbing Aus ATC (RADAR)
Fri 04:11:28 AM -32.5147 115.8269 226° Southwest 84 97 1,100 435 Climbing Aus ATC (RADAR)
Fri 04:11:53 AM -32.5212 115.8153 236° Southwest 93 107 1,300 400 Climbing Aus ATC (RADAR)
Fri 04:12:28 AM -32.5317 115.8015 228° Southwest 96 110 1,500 400 Climbing Aus ATC (RADAR)
Fri 04:13:23 AM -32.5508 115.7862 214° Southwest 91 105 1,900 525 Climbing Aus ATC (RADAR)
Fri 04:13:48 AM -32.5610 115.7828 196° South 92 106 2,200 600 Climbing Aus ATC (RADAR)
Fri 04:14:23 AM -32.5691 115.7988 121° Southeast 93 107 2,500 514 Climbing Aus ATC (RADAR)
Fri 04:14:58 AM -32.5585 115.8178 56° Northeast 111 128 2,800 400 Climbing Aus ATC (RADAR)
Fri 04:15:38 AM -32.5451 115.8375 51° Northeast 113 130 3,000 200 Climbing Aus ATC (RADAR)
Fri 04:16:28 AM -32.5235 115.8562 36° Northeast 119 137 3,100 185 Climbing Aus ATC (RADAR)
Fri 04:16:43 AM -32.5191 115.8639 56° Northeast 112 129 3,200 120 Climbing Aus ATC (RADAR)
Fri 04:17:18 AM -32.5094 115.8881 65° Northeast 132 152 3,200 -63 Level Aus ATC (RADAR)
Fri 04:18:18 AM -32.4910 115.9238 58° Northeast 128 147 3,100  Descending Aus ATC (RADAR)
Fri 04:18:43 AM -32.4829 115.9380 56° Northeast 124 143 3,200  Climbing Aus ATC (RADAR)
Fri 04:19:27 AM -32.4697 115.9644 59° Northeast 123 142 3,100  Descending Aus ATC (RADAR)
Fri 04:19:58 AM -32.4610 115.9828 61° Northeast 125 144 3,200 92 Climbing Aus ATC (RADAR)
Fri 04:20:32 AM -32.4503 116.0038 59° Northeast 125 144 3,200  Level Aus ATC (RADAR)
Fri 04:21:08 AM -32.4395 116.0255 59° Northeast 127 146 3,200 -86 Level Aus ATC (RADAR)
Fri 04:21:42 AM -32.4291 116.0488 62° Northeast 135 155 3,100 -92 Descending Aus ATC (RADAR)
Fri 04:22:13 AM -32.4201 116.0676 60° Northeast 129 148 3,100 -86 Level Aus ATC (RADAR)
Fri 04:22:52 AM -32.4137 116.0961 75° East 132 152 3,000 63 Descending Aus ATC (RADAR)
Fri 04:23:48 AM -32.4107 116.1334 85° East 123 142 3,200 126 Climbing Aus ATC (RADAR)
Fri 04:24:27 AM -32.4257 116.1500 137° Southeast 115 132 3,200  Level Aus ATC (RADAR)
Fri 04:25:02 AM -32.4361 116.1352 230° Southwest 99 114 3,200  Level Aus ATC (RADAR)
Fri 04:25:52 AM -32.4276 116.1078 290° West 101 116 3,200 -80 Level Aus ATC (RADAR)
Fri 04:26:17 AM -32.4225 116.0954 296° West 101 116 3,100 -100 Descending Aus ATC (RADAR)
Fri 04:26:52 AM -32.4152 116.0770 295° West 104 120 3,100 75 Level Aus ATC (RADAR)
Fri 04:27:37 AM -32.3964 116.0686 339° North 108 124 3,200 57 Climbing Aus ATC (RADAR)
Fri 04:28:37 AM -32.3978 116.1077 92° East 120 138 3,200  Level Aus ATC (RADAR)
Fri 04:29:02 AM -32.4057 116.1213 125° Southeast 123 142 3,200  Level Aus ATC (RADAR)
Fri 04:29:26 AM -32.4168 116.1132 211° Southwest 110 127 3,200 -92 Level Aus ATC (RADAR)
Fri 04:30:07 AM -32.4142 116.0904 278° West 101 116 3,100 -67 Descending Aus ATC (RADAR)
Fri 04:30:56 AM -32.4032 116.0655 298° West 99 114 3,100 71 Level Aus ATC (RADAR)
Fri 04:31:31 AM -32.3981 116.0472 288° West 96 110 3,200 71 Climbing Aus ATC (RADAR)
Fri 04:32:21 AM -32.3884 116.0205 293° West 107 123 3,200  Level Aus ATC (RADAR)
Fri 04:32:56 AM -32.3817 116.0013 292° West 106 122 3,200 -60 Level Aus ATC (RADAR)
Fri 04:34:01 AM -32.3887 115.9696 255° West 101 116 3,100 -67 Descending Aus ATC (RADAR)
Fri 04:34:26 AM -32.3988 115.9625 211° Southwest 101 116 3,100 -300 Level Aus ATC (RADAR)
Fri 04:35:01 AM -32.4103 115.9470 229° Southwest 105 121 2,800 -635 Descending Aus ATC (RADAR)
Fri 04:35:51 AM -32.4285 115.9253 225° Southwest 107 123 2,200 -706 Descending Aus ATC (RADAR)
Fri 04:36:26 AM -32.4405 115.9112 225° Southwest 102 117 1,800 -525 Descending Aus ATC (RADAR)
Fri 04:37:11 AM -32.4542 115.8972 221° Southwest 85 98 1,500 -429 Descending Aus ATC (RADAR)
Fri 04:37:36 AM -32.4607 115.8882 229° Southwest 82 94 1,300 -400 Descending Aus ATC (RADAR)
Fri 04:38:11 AM -32.4704 115.8784 221° Southwest 79 91 1,100 -360 Descending Aus ATC (RADAR)
Fri 04:39:16 AM -32.4877 115.8567 227° Southwest 87 100 700 -267 Descending Aus ATC (RADAR)
Fri 04:39:41 AM -32.4945 115.8494 222° Southwest 82 94 700 100 Level Aus ATC (RADAR)
Fri 04:40:16 AM -32.5037 115.8393 223° Southwest 79 91 800 304 Climbing Aus ATC (RADAR)
Fri 04:41:00 AM -32.5211 115.8373 186° South 88 101 1,100 608 Climbing Aus ATC (RADAR)
Fri 04:41:35 AM -32.5210 115.8547 89° East 94 108 1,600 635 Climbing Aus ATC (RADAR)
Fri 04:42:25 AM -32.5016 115.8437 334° Northwest 91 105 2,000 480 Climbing Aus ATC (RADAR)
Fri 04:42:50 AM -32.4911 115.8415 350° North 94 108 2,200 200 Climbing Aus ATC (RADAR)
Fri 04:43:25 AM -32.4740 115.8375 349° North 108 124 2,200 -67 Level Aus ATC (RADAR)
Fri 04:44:20 AM -32.4444 115.8314 350° North 114 131 2,100 -75 Descending Aus ATC (RADAR)
Fri 04:44:45 AM -32.4301 115.8261 343° North 125 144 2,100 -100 Level Aus ATC (RADAR)
Fri 04:45:20 AM -32.4117 115.8251 357° North 116 133 2,000  Descending Aus ATC (RADAR)
Fri 04:46:05 AM -32.3885 115.8177 345° North 112 129 2,100 141 Climbing Aus ATC (RADAR)
Fri 04:46:45 AM -32.3702 115.8093 339° North 104 120 2,200 71 Climbing Aus ATC (RADAR)
Fri 04:47:30 AM -32.3484 115.8007 341° North 107 123 2,200  Level Aus ATC (RADAR)
Fri 04:47:55 AM -32.3349 115.7987 353° North 114 131 2,200 -200 Level Aus ATC (RADAR)
Fri 04:48:30 AM -32.3160 115.7955 352° North 118 136 2,000 -316 Descending Aus ATC (RADAR)
Fri 04:49:30 AM -32.2825 115.7903 353° North 121 139 1,700 -282 Descending Aus ATC (RADAR)
Fri 04:49:55 AM -32.2689 115.7882 353° North 117 135 1,600 -100 Descending Aus ATC (RADAR)
Fri 04:50:30 AM -32.2507 115.7855 353° North 111 128 1,600 71 Level Aus ATC (RADAR)
Fri 04:51:20 AM -32.2255 115.7818 353° North 109 125 1,700  Climbing Aus ATC (RADAR)
Fri 04:51:54 AM -32.2061 115.7781 351° North 121 139 1,600 -150 Descending Aus ATC (RADAR)
Fri 04:52:40 AM -32.1819 115.7742 352° North 116 133 1,500 -130 Descending Aus ATC (RADAR)

Login

Don't have an account? Register now (free) for customized features, flight alerts, and more!